Webcam Zuidwest more information Webcam Zuidwest


Onweer radar more information blitzortung!


Regen radar more information rain snow radar


Weerstation Alkmaar Centrum

Weerstation Luyksgestel

Website Noardburgum


U vindt ons ook hier:

Het Weer Aktueel

UK Metoffice

European Weather Network

Weather Underground

AWEKAS

Citizen Weather Observer Program (CWOP)

HAMweather, WeatherForYou, PWS Weather



Het weer levert geen direct gevaar op.    Er zijn geen waarschuwingen afgegeven.

METAR rapporten vliegvelden

   
EHLW - Leeuwarden Rnlaf, Netherlands
Afstand tot: W 17 km
Gewijzigd: 02-04-2020 10:29
Grotendeels bewolkt  
Grotendeels bewolkt  
   Wind: WZW 29.6 km/h
Wind: WZW 29.6 km/h
Temperatuur: 9°C
Voelt als: 6°C
Dauwpunt: 5°C
Vochtigheid: 76%
Barometer: 1012 hPa
Bewolking: Grotendeels bewolkt
Zicht: meer dan 10 km
Bewolking: Grotendeels bewolkt 1400 ft
EHLW 020829Z AUTO 25016KT 9999 BKN014 09/05 Q1012 GRN 24013KT 9999 SCT015 SCT038
EHMA - Awg-1 Sea, Netherlands
Afstand tot: N 31 km
Gewijzigd: 02-04-2020 10:25
Grotendeels bewolkt  
Grotendeels bewolkt  
   Wind: WZW 35.2 km/h
Wind: WZW 35.2 km/h
Temperatuur: 7°C
Voelt als: 2°C
Dauwpunt: 5°C
Vochtigheid: 87%
Barometer: 1011 hPa
Bewolking: Grotendeels bewolkt
Zicht: meer dan 10 km
Bewolking: Licht bewolkt 800 ft,
Grotendeels bewolkt 3800 ft
EHMA 020825Z AUTO 24019KT 9999 FEW008 BKN038 07/05 Q1011
EHGG - Groningen/Eelde, Netherlands
Afstand tot: OZO 40 km
Gewijzigd: 02-04-2020 10:25
Licht bewolkt  
Licht bewolkt  
   Wind: ZW 24.1 km/h
Wind: ZW 24.1 km/h
Temperatuur: 8°C
Voelt als: 4°C
Dauwpunt: 4°C
Vochtigheid: 76%
Barometer: 1012 hPa
Bewolking: Licht bewolkt
Zicht: meer dan 10 km
Bewolking: Licht bewolkt 3800 ft
EHGG 020825Z AUTO 23013KT 9999 FEW038 08/04 Q1012 NOSIG
EHVL - Vlieland Island, Netherlands
Afstand tot: W 72 km
Gewijzigd: 02-04-2020 10:33
Grotendeels bewolkt  
Grotendeels bewolkt  
   Wind: WZW 35.2 km/h
Wind: WZW 35.2 km/h
Temperatuur: 8°C
Voelt als: 4°C
Dauwpunt: 6°C
Vochtigheid: 87%
Barometer: 1012 hPa
Bewolking: Grotendeels bewolkt
Zicht: meer dan 10 km
Bewolking: Licht bewolkt 700 ft,
Grotendeels bewolkt 900 ft,
Grotendeels bewolkt 1000 ft
EHVL 020833Z AUTO 25019KT 9999 FEW007 BKN009 BKN010 08/06 Q1012 GRN
EHMG - L9-Ff-1 Sea, Netherlands
Afstand tot: WNW 81 km
Gewijzigd: 02-04-2020 10:25
Grotendeels bewolkt  
Grotendeels bewolkt  
   Wind: WZW 37 km/h
Wind: WZW 37 km/h
Temperatuur: 7°C
Voelt als: 2°C
Dauwpunt: 6°C
Vochtigheid: 93%
Barometer: 1011 hPa
Bewolking: Grotendeels bewolkt
Zicht: 8 km
Bewolking: Licht bewolkt 600 ft,
Grotendeels bewolkt 3700 ft
EHMG 020825Z AUTO 24020KT 8000 FEW006 BKN037 07/06 Q1011
EHKD - De Kooy (navy), Netherlands
Afstand tot: WZW 89 km
Gewijzigd: 02-04-2020 10:25
Helder  
Helder  
   Wind: WZW 27.8 km/h
Wind: WZW 27.8 km/h
Temperatuur: 9°C
Voelt als: 6°C
Dauwpunt: 6°C
Vochtigheid: 82%
Barometer: 1012 hPa
Bewolking: Helder
Zicht: meer dan 10 km
Bewolking: Helder
EHKD 020825Z AUTO 24015KT 210V270 9999 NCD 09/06 Q1012 BLU 25012KT 9999 FEW040

Script ontwikkeld door  Saratoga-weather.org Aangepast voor de template door  Weerstation Leuven

Apparatuur in gebruik:

Weerstation
Davis Vantage pro 2

Weerprogramma
Meteobridge

Weercomputer
TP-Link TL-WR703N

Webleverancier
Versio

Davis Vantage pro 2

Meteobridge

TP-Link TL-WR703N

Versio